createdAt,value
2018-08-31T13:22:39.066Z,28.12
2018-08-31T13:23:38.989Z,28.12
2018-08-31T13:24:38.985Z,28.12
2018-08-31T13:25:38.959Z,28.12
2018-08-31T13:26:38.937Z,33.75
2018-08-31T13:27:38.922Z,5.62
2018-08-31T13:28:38.912Z,11.25
2018-08-31T13:32:45.570Z,568.12
2018-08-31T13:33:45.588Z,433.12
2018-08-31T13:34:45.547Z,528.75
2018-08-31T13:35:45.537Z,405.00
2018-08-31T13:36:45.527Z,478.12
2018-08-31T13:37:45.521Z,371.25
2018-08-31T13:38:45.509Z,1743.75
2018-08-31T13:39:45.533Z,1681.88
2018-08-31T13:40:45.488Z,478.12
2018-08-31T13:41:45.629Z,500.62
2018-08-31T13:42:45.463Z,450.00
2018-08-31T13:43:45.460Z,444.38
2018-08-31T13:44:45.450Z,455.62
2018-08-31T13:45:45.481Z,472.50
2018-08-31T13:46:45.432Z,495.00
2018-08-31T13:47:45.471Z,523.12
2018-08-31T13:48:45.400Z,703.12
2018-08-31T13:49:45.392Z,1591.88
2018-08-31T13:50:45.378Z,1518.75
2018-08-31T13:51:45.414Z,1468.12
2018-08-31T13:52:45.463Z,1580.62
2018-08-31T13:53:45.356Z,1558.12
2018-08-31T13:54:45.351Z,1524.38
2018-08-31T13:55:45.332Z,1546.88
2018-08-31T13:56:45.326Z,1558.12
2018-08-31T13:57:45.401Z,1608.75
2018-08-31T13:58:45.329Z,1631.25
2018-08-31T13:59:45.335Z,1636.88
2018-08-31T14:00:45.282Z,1513.12
2018-08-31T14:01:45.647Z,877.50
2018-08-31T14:02:45.255Z,1451.25
2018-08-31T14:03:45.455Z,1406.25
2018-08-31T14:04:45.318Z,1524.38
2018-08-31T14:05:45.275Z,1530.00
2018-08-31T14:06:45.229Z,1361.25
2018-08-31T14:07:45.246Z,1293.75
2018-08-31T14:08:45.188Z,1400.62
2018-08-31T14:09:45.212Z,1659.38
2018-08-31T14:10:45.194Z,1625.62
2018-08-31T14:11:45.159Z,1710.00
2018-08-31T14:12:45.256Z,1659.38
2018-08-31T14:13:45.200Z,1665.00
2018-08-31T14:14:45.128Z,1721.25
2018-08-31T14:15:45.176Z,1715.62
2018-08-31T14:16:45.108Z,1693.12
2018-08-31T14:17:45.104Z,1681.88
2018-08-31T14:18:45.086Z,478.12
2018-08-31T14:19:45.083Z,742.50
2018-08-31T14:20:45.070Z,1535.62
2018-08-31T14:21:45.130Z,1580.62
2018-08-31T14:22:45.051Z,1462.50
2018-08-31T14:23:45.033Z,1254.38
2018-08-31T14:24:45.024Z,292.50
2018-08-31T14:25:45.041Z,247.50
2018-08-31T14:26:45.032Z,230.62
2018-08-31T14:27:45.053Z,225.00
2018-08-31T14:28:44.990Z,225.00
2018-08-31T14:29:44.996Z,230.62
2018-08-31T14:30:44.962Z,241.88
2018-08-31T14:31:44.988Z,258.75
2018-08-31T14:32:44.940Z,281.25
2018-08-31T14:33:44.987Z,292.50
2018-08-31T14:34:44.925Z,320.62
2018-08-31T14:35:44.932Z,348.75
2018-08-31T14:36:44.905Z,371.25
2018-08-31T14:37:44.891Z,393.75
2018-08-31T14:38:44.890Z,495.00
2018-08-31T14:39:44.919Z,613.12
2018-08-31T14:40:44.865Z,596.25
2018-08-31T14:41:44.889Z,1366.88
2018-08-31T14:42:44.843Z,1248.75
2018-08-31T14:43:44.825Z,1305.00
2018-08-31T14:44:44.821Z,1507.50
2018-08-31T14:45:44.838Z,1575.00
2018-08-31T14:46:44.805Z,1681.88
2018-08-31T14:47:44.827Z,1676.25
2018-08-31T14:48:44.773Z,1732.50
2018-08-31T14:49:44.792Z,1749.38
2018-08-31T14:50:44.761Z,1783.12
2018-08-31T14:51:44.783Z,1608.75
2018-08-31T14:52:44.732Z,1158.75
2018-08-31T14:53:44.739Z,1243.12
2018-08-31T14:54:44.749Z,1743.75
2018-08-31T14:55:44.718Z,1777.50
2018-08-31T14:56:44.699Z,1743.75
2018-08-31T14:57:44.727Z,1665.00
2018-08-31T14:58:44.784Z,1704.38
2018-08-31T14:59:44.664Z,1642.50
2018-08-31T15:00:44.659Z,1541.25
2018-08-31T15:01:44.643Z,1400.62
2018-08-31T15:02:44.629Z,1366.88
2018-08-31T15:03:44.689Z,1451.25
2018-08-31T15:04:44.631Z,1569.38
2018-08-31T15:05:44.650Z,1552.50
2018-08-31T15:06:44.591Z,1485.00
2018-08-31T15:07:44.602Z,1417.50
2018-08-31T15:08:44.571Z,1361.25
2018-08-31T15:09:44.605Z,1344.38
2018-08-31T15:10:44.562Z,1310.62
2018-08-31T15:11:44.538Z,1276.88
2018-08-31T15:12:44.559Z,1276.88
2018-08-31T15:13:44.523Z,1265.62
2018-08-31T15:14:44.514Z,1254.38
2018-08-31T15:15:44.530Z,1170.00
2018-08-31T15:16:44.487Z,1141.88
2018-08-31T15:17:44.479Z,1113.75
2018-08-31T15:18:44.482Z,1096.88
2018-08-31T15:19:44.461Z,1080.00
2018-08-31T15:20:44.444Z,1057.50
2018-08-31T15:21:44.468Z,1018.12
2018-08-31T15:22:44.426Z,1006.88
2018-08-31T15:23:44.416Z,1001.25
2018-08-31T15:24:44.424Z,984.38
2018-08-31T15:25:44.435Z,956.25
2018-08-31T15:26:44.383Z,939.38
2018-08-31T15:27:44.409Z,933.75
2018-08-31T15:28:44.363Z,905.62
2018-08-31T15:29:44.352Z,866.25
2018-08-31T15:30:44.358Z,832.50
2018-08-31T15:31:44.338Z,855.00
2018-08-31T15:32:44.321Z,866.25
2018-08-31T15:33:44.343Z,849.38
2018-08-31T15:34:44.305Z,810.00
2018-08-31T15:35:44.291Z,781.88
2018-08-31T15:36:44.311Z,759.38
2018-08-31T15:37:44.272Z,731.25
2018-08-31T15:38:44.268Z,720.00
2018-08-31T15:39:44.280Z,686.25
2018-08-31T15:40:44.248Z,691.88
2018-08-31T15:41:44.232Z,691.88
2018-08-31T15:42:44.242Z,675.00
2018-08-31T15:43:44.208Z,697.50
2018-08-31T15:44:44.197Z,697.50
2018-08-31T15:45:44.223Z,675.00
2018-08-31T15:46:44.175Z,652.50
2018-08-31T15:47:44.169Z,646.88
2018-08-31T15:48:44.167Z,630.00
2018-08-31T15:49:44.178Z,624.38
2018-08-31T15:50:44.134Z,635.62
2018-08-31T15:51:44.152Z,635.62
2018-08-31T15:52:44.112Z,618.75
2018-08-31T15:53:44.106Z,601.88
2018-08-31T15:54:44.102Z,601.88
2018-08-31T15:55:44.080Z,601.88
2018-08-31T15:56:44.068Z,579.38
2018-08-31T15:57:44.094Z,466.88
2018-08-31T15:58:44.049Z,388.12
2018-08-31T15:59:44.042Z,382.50
2018-08-31T16:00:44.029Z,388.12
2018-08-31T16:01:44.028Z,444.38
2018-08-31T16:02:44.006Z,461.25
2018-08-31T16:03:44.032Z,444.38
2018-08-31T16:04:43.985Z,438.75
2018-08-31T16:05:43.972Z,427.50
2018-08-31T16:06:43.961Z,410.62
2018-08-31T16:07:43.991Z,376.88
2018-08-31T16:08:43.943Z,348.75
2018-08-31T16:09:43.976Z,337.50
2018-08-31T16:10:43.919Z,326.25
2018-08-31T16:11:43.908Z,320.62
2018-08-31T16:12:43.898Z,315.00
2018-08-31T16:13:43.894Z,309.38
2018-08-31T16:14:43.881Z,303.75
2018-08-31T16:15:43.902Z,298.12
2018-08-31T16:16:43.906Z,292.50
2018-08-31T16:17:43.862Z,286.88
2018-08-31T16:18:43.876Z,281.25
2018-08-31T16:19:43.861Z,275.62
2018-08-31T16:20:43.877Z,275.62
2018-08-31T16:21:43.846Z,270.00
2018-08-31T16:22:43.821Z,264.38
2018-08-31T16:23:43.821Z,258.75
2018-08-31T16:24:43.812Z,253.12
2018-08-31T16:25:43.765Z,247.50
2018-08-31T16:26:43.785Z,241.88
2018-08-31T16:27:43.794Z,241.88
2018-08-31T16:28:43.751Z,236.25
2018-08-31T16:29:43.743Z,236.25
2018-08-31T16:30:43.722Z,230.62
2018-08-31T16:31:43.708Z,225.00
2018-08-31T16:32:43.688Z,225.00
2018-08-31T16:33:43.725Z,219.38
2018-08-31T16:34:43.670Z,213.75
2018-08-31T16:35:43.678Z,213.75
2018-08-31T16:36:43.681Z,208.12
2018-08-31T16:37:43.632Z,208.12
2018-08-31T16:38:43.678Z,208.12
2018-08-31T16:39:43.680Z,208.12
2018-08-31T16:40:43.600Z,202.50
2018-08-31T16:41:43.584Z,202.50
2018-08-31T16:42:43.598Z,196.88
2018-08-31T16:43:43.595Z,196.88
2018-08-31T16:44:43.596Z,191.25
2018-08-31T16:45:43.587Z,191.25
2018-08-31T16:46:43.537Z,191.25
2018-08-31T16:47:43.521Z,191.25
2018-08-31T16:48:43.512Z,185.62
2018-08-31T16:49:43.499Z,185.62
2018-08-31T16:50:43.497Z,185.62
2018-08-31T16:51:43.522Z,180.00
2018-08-31T16:52:43.466Z,180.00
2018-08-31T16:53:43.457Z,185.62
2018-08-31T16:54:43.457Z,174.38
2018-08-31T16:55:43.442Z,174.38
2018-08-31T16:56:43.428Z,174.38
2018-08-31T16:57:43.479Z,168.75
2018-08-31T16:58:43.428Z,168.75
2018-08-31T16:59:43.393Z,163.12
2018-08-31T17:00:43.377Z,163.12
2018-08-31T17:01:43.379Z,163.12
2018-08-31T17:02:43.406Z,157.50
2018-08-31T17:03:43.421Z,157.50
2018-08-31T17:04:43.340Z,151.88
2018-08-31T17:05:43.325Z,151.88
2018-08-31T17:06:43.330Z,146.25
2018-08-31T17:07:43.363Z,146.25
2018-08-31T17:08:43.380Z,146.25
2018-08-31T17:09:43.321Z,140.62
2018-08-31T17:10:43.282Z,135.00
2018-08-31T17:11:43.274Z,135.00
2018-08-31T17:12:43.254Z,135.00
2018-08-31T17:13:43.238Z,135.00
2018-08-31T17:14:43.237Z,129.38
2018-08-31T17:15:43.256Z,129.38
2018-08-31T17:16:43.277Z,129.38
2018-08-31T17:17:43.203Z,129.38
2018-08-31T17:18:43.195Z,123.75
2018-08-31T17:19:43.180Z,118.12
2018-08-31T17:20:43.179Z,112.50
2018-08-31T17:21:43.181Z,106.88
2018-08-31T17:22:43.145Z,106.88
2018-08-31T17:23:43.130Z,101.25
2018-08-31T17:24:43.138Z,95.62
2018-08-31T17:25:43.124Z,95.62
2018-08-31T17:26:43.106Z,90.00
2018-08-31T17:27:43.131Z,84.38
2018-08-31T17:28:43.088Z,78.75
2018-08-31T17:29:43.070Z,78.75
2018-08-31T17:30:43.104Z,73.12
2018-08-31T17:31:43.113Z,67.50
2018-08-31T17:32:43.031Z,67.50
2018-08-31T17:33:43.065Z,33.75
2018-08-31T17:34:43.014Z,61.88
2018-08-31T17:35:43.006Z,56.25
2018-08-31T17:36:42.992Z,33.75
2018-08-31T17:37:42.980Z,56.25
2018-08-31T18:21:04.540Z,16.88
2018-08-31T18:22:04.481Z,11.25
2018-08-31T18:23:04.470Z,11.25
2018-08-31T18:24:04.460Z,11.25
2018-08-31T18:25:04.459Z,11.25
2018-08-31T18:26:04.439Z,5.62
2018-08-31T18:27:04.474Z,5.62
2018-08-31T18:28:04.424Z,5.62
2018-08-31T18:29:04.414Z,5.62
2018-08-31T18:30:04.393Z,5.62
2018-08-31T18:31:04.388Z,5.62
2018-08-31T18:32:04.381Z,0.00
2018-08-31T18:33:04.444Z,0.00
2018-08-31T18:34:04.372Z,0.00
2018-08-31T18:35:04.345Z,0.00
2018-08-31T18:36:04.343Z,0.00
2018-08-31T18:37:04.331Z,0.00
2018-08-31T18:38:04.317Z,0.00
2018-08-31T18:39:04.802Z,0.00
2018-08-31T18:40:04.464Z,0.00
2018-08-31T18:41:04.299Z,0.00
2018-08-31T18:42:04.264Z,0.00
2018-08-31T18:43:04.272Z,0.00
2018-08-31T18:44:04.264Z,0.00
2018-08-31T18:45:04.279Z,0.00
2018-08-31T18:46:04.282Z,0.00
2018-08-31T18:47:04.231Z,0.00
2018-08-31T18:48:04.202Z,0.00
2018-08-31T18:49:04.218Z,0.00
2018-08-31T18:50:04.179Z,0.00
2018-08-31T18:51:04.793Z,0.00
2018-08-31T18:52:04.157Z,0.00
2018-08-31T18:53:04.145Z,0.00
2018-08-31T18:54:04.150Z,0.00
2018-08-31T18:55:04.122Z,0.00
2018-08-31T18:56:04.112Z,0.00
2018-08-31T18:57:04.140Z,0.00
2018-08-31T18:58:04.171Z,0.00
2018-08-31T18:59:04.080Z,0.00
2018-08-31T19:00:04.089Z,0.00
2018-08-31T19:01:04.059Z,0.00
2018-08-31T19:02:04.047Z,0.00
2018-08-31T19:03:04.070Z,0.00
2018-08-31T19:04:04.026Z,0.00
2018-08-31T19:05:04.020Z,0.00
2018-08-31T19:06:04.008Z,0.00
2018-08-31T19:07:04.102Z,0.00
2018-08-31T19:08:03.986Z,0.00
2018-08-31T19:09:04.003Z,0.00
2018-08-31T19:10:03.959Z,0.00
2018-08-31T19:11:04.022Z,0.00
2018-08-31T19:12:03.947Z,0.00
2018-08-31T19:13:03.940Z,0.00
2018-08-31T19:14:03.926Z,0.00
2018-08-31T19:15:03.936Z,0.00
2018-08-31T19:16:03.892Z,0.00
2018-08-31T19:17:03.885Z,0.00
2018-08-31T19:18:03.870Z,0.00
2018-08-31T19:19:03.865Z,0.00
2018-08-31T19:20:03.863Z,0.00
2018-08-31T19:21:03.870Z,0.00
2018-08-31T19:22:03.857Z,0.00
2018-08-31T19:23:03.826Z,0.00
2018-08-31T19:24:03.832Z,0.00
2018-08-31T19:25:03.872Z,0.00
2018-08-31T19:26:03.833Z,0.00
2018-08-31T19:27:03.839Z,0.00
2018-08-31T19:28:03.852Z,0.00
2018-08-31T19:29:03.754Z,0.00
2018-08-31T19:30:03.748Z,0.00
2018-08-31T19:31:03.775Z,0.00
2018-08-31T19:32:03.723Z,0.00
2018-08-31T19:33:03.749Z,0.00
2018-08-31T19:34:03.714Z,0.00
2018-08-31T19:35:03.711Z,0.00
2018-08-31T19:36:03.696Z,0.00
2018-08-31T19:37:03.670Z,0.00
2018-08-31T19:38:03.678Z,0.00
2018-08-31T19:39:03.713Z,0.00
2018-08-31T19:40:03.634Z,0.00
2018-08-31T19:41:03.684Z,0.00
2018-08-31T19:42:03.617Z,0.00
2018-08-31T19:43:03.596Z,0.00
2018-08-31T19:44:03.593Z,0.00
2018-08-31T19:45:03.628Z,0.00
2018-08-31T19:46:03.601Z,0.00
2018-08-31T19:47:03.581Z,0.00
2018-08-31T19:48:03.575Z,0.00
2018-08-31T19:49:03.547Z,0.00
2018-08-31T19:50:03.563Z,0.00
2018-08-31T19:51:03.555Z,0.00
2018-08-31T19:52:03.502Z,0.00
2018-08-31T19:53:03.489Z,0.00
2018-08-31T19:54:03.586Z,0.00
2018-08-31T19:55:03.484Z,0.00
2018-08-31T19:56:03.478Z,0.00
2018-08-31T19:57:03.478Z,0.00
2018-08-31T19:58:03.438Z,0.00
2018-08-31T19:59:03.461Z,0.00
2018-08-31T20:00:03.410Z,0.00
2018-08-31T20:01:03.416Z,0.00
2018-08-31T20:02:03.399Z,0.00
2018-08-31T20:03:03.473Z,0.00
2018-08-31T20:04:03.410Z,0.00
2018-08-31T20:05:03.371Z,0.00
2018-08-31T20:06:03.365Z,0.00
2018-08-31T20:07:03.424Z,0.00
2018-08-31T20:08:03.355Z,0.00
2018-08-31T20:09:03.345Z,0.00
2018-08-31T20:10:03.310Z,0.00
2018-08-31T20:11:03.291Z,0.00
2018-08-31T20:12:03.281Z,0.00
2018-08-31T20:13:03.281Z,0.00
2018-08-31T20:14:03.270Z,0.00
2018-08-31T20:15:03.442Z,0.00
2018-08-31T20:16:03.262Z,0.00
2018-08-31T20:17:03.275Z,0.00
2018-08-31T20:18:03.222Z,0.00
2018-08-31T20:19:03.217Z,0.00
2018-08-31T20:20:03.206Z,0.00
2018-08-31T20:21:03.240Z,0.00
2018-08-31T20:22:03.172Z,0.00
2018-08-31T20:23:03.200Z,0.00
2018-08-31T20:24:03.205Z,0.00
2018-08-31T20:25:03.150Z,0.00
2018-08-31T20:26:03.166Z,0.00
2018-08-31T20:27:03.152Z,0.00
2018-08-31T20:28:03.120Z,0.00
2018-08-31T20:29:03.092Z,0.00
2018-08-31T20:30:03.100Z,0.00
2018-08-31T20:31:03.201Z,0.00
2018-08-31T20:32:03.082Z,0.00
2018-08-31T20:33:03.116Z,0.00
2018-08-31T20:34:03.056Z,0.00
2018-08-31T20:35:03.028Z,0.00
2018-08-31T20:36:03.021Z,0.00
2018-08-31T20:37:02.998Z,0.00
2018-08-31T20:38:02.996Z,0.00
2018-08-31T20:39:03.021Z,0.00
2018-08-31T20:40:02.986Z,0.00
2018-08-31T20:41:02.966Z,0.00
2018-08-31T20:42:02.950Z,0.00
2018-08-31T20:43:02.996Z,0.00
2018-08-31T20:44:02.925Z,0.00
2018-08-31T20:45:02.945Z,0.00
2018-08-31T20:46:02.935Z,0.00
2018-08-31T20:47:02.894Z,0.00
2018-08-31T20:48:02.883Z,0.00
2018-08-31T20:49:02.874Z,0.00
2018-08-31T20:50:02.863Z,0.00
2018-08-31T20:51:02.876Z,0.00
2018-08-31T20:52:02.850Z,0.00
2018-08-31T20:53:02.824Z,0.00
2018-08-31T20:54:02.838Z,0.00
2018-08-31T20:55:02.812Z,0.00
2018-08-31T20:56:02.804Z,0.00
2018-08-31T20:57:02.831Z,0.00
2018-08-31T20:58:02.779Z,0.00
2018-08-31T20:59:02.774Z,0.00
2018-08-31T21:00:02.751Z,0.00
2018-08-31T21:01:02.754Z,0.00
2018-08-31T21:02:02.734Z,0.00
2018-08-31T21:03:02.758Z,0.00
2018-08-31T21:04:02.705Z,0.00
2018-08-31T21:05:02.706Z,0.00
2018-08-31T21:06:02.692Z,0.00
2018-08-31T21:07:02.672Z,0.00
2018-08-31T21:08:02.675Z,0.00
2018-08-31T21:09:02.686Z,0.00
2018-08-31T21:10:02.637Z,0.00
2018-08-31T21:11:02.628Z,0.00
2018-08-31T21:12:02.622Z,0.00
2018-08-31T21:13:02.619Z,0.00
2018-08-31T21:14:02.598Z,0.00
2018-08-31T21:15:02.627Z,0.00
2018-08-31T21:16:02.583Z,0.00
2018-08-31T21:17:02.597Z,0.00
2018-08-31T21:18:02.549Z,0.00
2018-08-31T21:19:02.539Z,0.00
2018-08-31T21:20:02.531Z,0.00
2018-08-31T21:21:02.567Z,0.00
2018-08-31T21:22:02.506Z,0.00
2018-08-31T21:23:02.494Z,0.00
2018-08-31T21:24:02.489Z,0.00
2018-08-31T21:25:02.474Z,0.00
2018-08-31T21:26:02.464Z,0.00
2018-08-31T21:27:02.493Z,0.00
2018-08-31T21:28:02.440Z,0.00
2018-08-31T21:29:02.428Z,0.00
2018-08-31T21:30:02.422Z,0.00
2018-08-31T21:31:02.415Z,0.00
2018-08-31T21:32:02.454Z,0.00
2018-08-31T21:33:02.437Z,0.00
2018-08-31T21:34:02.374Z,0.00
2018-08-31T21:35:02.364Z,0.00
2018-08-31T21:36:02.357Z,0.00
2018-08-31T21:37:02.341Z,0.00
2018-08-31T21:38:02.331Z,0.00
2018-08-31T21:39:02.387Z,0.00
2018-08-31T21:40:02.319Z,0.00
2018-08-31T21:41:02.305Z,0.00
2018-08-31T21:42:02.354Z,0.00
2018-08-31T21:43:02.302Z,0.00
2018-08-31T21:44:02.793Z,0.00
2018-08-31T21:45:02.290Z,0.00
2018-08-31T21:46:02.253Z,0.00
2018-08-31T21:47:02.244Z,0.00
2018-08-31T21:48:02.291Z,0.00
2018-08-31T21:49:02.240Z,0.00
2018-08-31T21:50:02.238Z,0.00
2018-08-31T21:51:02.244Z,0.00
2018-08-31T21:52:02.192Z,0.00
2018-08-31T21:53:02.186Z,0.00
2018-08-31T21:54:02.191Z,0.00
2018-08-31T21:55:02.191Z,0.00
2018-08-31T21:56:02.145Z,0.00
2018-08-31T21:57:02.199Z,0.00
2018-08-31T21:58:02.126Z,0.00
2018-08-31T21:59:02.119Z,0.00
2018-08-31T22:00:02.092Z,0.00
2018-08-31T22:01:02.092Z,0.00
2018-08-31T22:02:02.079Z,0.00
2018-08-31T22:03:02.093Z,0.00
2018-08-31T22:04:02.050Z,0.00
2018-08-31T22:05:02.049Z,0.00
2018-08-31T22:06:02.026Z,0.00
2018-08-31T22:07:02.019Z,0.00
2018-08-31T22:08:02.003Z,0.00
2018-08-31T22:09:02.031Z,0.00
2018-08-31T22:10:01.994Z,0.00
2018-08-31T22:11:01.971Z,0.00
2018-08-31T22:12:01.961Z,0.00
2018-08-31T22:13:01.949Z,0.00
2018-08-31T22:14:01.939Z,0.00
2018-08-31T22:15:01.961Z,0.00
2018-08-31T22:16:01.924Z,0.00
2018-08-31T22:17:01.915Z,0.00
2018-08-31T22:18:01.898Z,0.00
2018-08-31T22:19:01.890Z,0.00
2018-08-31T22:20:01.877Z,0.00
2018-08-31T22:21:01.892Z,0.00
2018-08-31T22:22:01.858Z,0.00
2018-08-31T22:23:01.855Z,0.00
2018-08-31T22:24:01.833Z,0.00
2018-08-31T22:25:01.828Z,0.00
2018-08-31T22:26:01.811Z,0.00
2018-08-31T22:27:01.845Z,0.00
2018-08-31T22:28:01.796Z,0.00
2018-08-31T22:29:01.786Z,0.00
2018-08-31T22:30:01.803Z,0.00
2018-08-31T22:31:01.787Z,0.00
2018-08-31T22:32:01.748Z,0.00
2018-08-31T22:33:01.774Z,0.00
2018-08-31T22:34:01.726Z,0.00
2018-08-31T22:35:01.723Z,0.00
2018-08-31T22:36:01.706Z,0.00
2018-08-31T22:37:01.711Z,0.00
2018-08-31T22:38:01.683Z,0.00
2018-08-31T22:39:01.712Z,0.00
2018-08-31T22:40:01.673Z,0.00
2018-08-31T22:41:01.643Z,0.00
2018-08-31T22:42:01.654Z,0.00
2018-08-31T22:43:01.632Z,0.00
2018-08-31T22:44:01.633Z,0.00
2018-08-31T22:45:01.662Z,0.00
2018-08-31T22:46:01.600Z,0.00
2018-08-31T22:47:01.588Z,0.00
2018-08-31T22:48:01.588Z,0.00
2018-08-31T22:49:01.565Z,0.00
2018-08-31T22:50:01.586Z,0.00
2018-08-31T22:51:01.578Z,0.00
2018-08-31T22:52:01.543Z,0.00
2018-08-31T22:53:01.528Z,0.00
2018-08-31T22:54:01.527Z,0.00
2018-08-31T22:55:01.503Z,0.00
2018-08-31T22:56:01.489Z,0.00
2018-08-31T22:57:01.505Z,0.00
2018-08-31T22:58:01.469Z,0.00
2018-08-31T22:59:01.457Z,0.00
2018-08-31T23:00:01.444Z,0.00
2018-08-31T23:01:01.440Z,0.00
2018-08-31T23:02:01.419Z,0.00
2018-08-31T23:03:01.453Z,0.00
2018-08-31T23:04:01.400Z,0.00
2018-08-31T23:05:01.389Z,0.00
2018-08-31T23:06:01.382Z,0.00
2018-08-31T23:07:01.368Z,0.00
2018-08-31T23:08:01.358Z,0.00
2018-08-31T23:09:01.371Z,0.00
2018-08-31T23:10:01.339Z,0.00
2018-08-31T23:11:01.322Z,0.00
2018-08-31T23:12:01.309Z,0.00
2018-08-31T23:13:01.334Z,0.00
2018-08-31T23:14:01.386Z,0.00
2018-08-31T23:15:01.325Z,0.00
2018-08-31T23:16:01.338Z,0.00
2018-08-31T23:17:01.268Z,0.00
2018-08-31T23:18:01.274Z,0.00
2018-08-31T23:19:01.244Z,0.00
2018-08-31T23:20:01.259Z,0.00
2018-08-31T23:21:01.260Z,0.00
2018-08-31T23:22:01.204Z,0.00
2018-08-31T23:23:01.192Z,0.00
2018-08-31T23:24:01.183Z,0.00
2018-08-31T23:25:01.183Z,0.00
2018-08-31T23:26:01.161Z,0.00
2018-08-31T23:27:01.195Z,0.00
2018-08-31T23:28:01.140Z,0.00
2018-08-31T23:29:01.145Z,0.00
2018-08-31T23:30:01.124Z,0.00
2018-08-31T23:31:01.108Z,0.00
2018-08-31T23:32:01.098Z,0.00
2018-08-31T23:33:01.114Z,0.00
2018-08-31T23:34:01.105Z,0.00
2018-08-31T23:35:01.059Z,0.00
2018-08-31T23:36:01.064Z,0.00
2018-08-31T23:37:01.060Z,0.00
2018-08-31T23:38:01.049Z,0.00
2018-08-31T23:39:01.076Z,0.00
2018-08-31T23:40:01.016Z,0.00
2018-08-31T23:41:00.996Z,0.00
2018-08-31T23:42:00.984Z,0.00
2018-08-31T23:43:00.997Z,0.00
2018-08-31T23:44:00.972Z,0.00
2018-08-31T23:45:00.987Z,0.00
2018-08-31T23:46:00.962Z,0.00
2018-08-31T23:47:00.940Z,0.00
2018-08-31T23:48:00.956Z,0.00
2018-08-31T23:49:00.923Z,0.00
2018-08-31T23:50:00.910Z,0.00
2018-08-31T23:51:00.935Z,0.00
2018-08-31T23:52:00.928Z,0.00
2018-08-31T23:53:00.884Z,0.00
2018-08-31T23:54:00.862Z,0.00
2018-08-31T23:55:00.841Z,0.00
2018-08-31T23:56:00.855Z,0.00
2018-08-31T23:57:00.862Z,0.00
2018-08-31T23:58:00.815Z,0.00
2018-08-31T23:59:00.830Z,0.00
